Time;durP1;ratioP1;P1;durP2;ratioP2;P2;SDS_P1;SDS_P2;PMS_P1;PMS_P2;Temp;Humidity;BMP_temperature;BMP_pressure;BME280_temperature;BME280_humidity;BME280_pressure;Samples;Min_cycle;Max_cycle;Signal;HPM_P1;HPM_P2
2021/11/22 00:00:29;;;;;;;2.22;1.60;;;;;;;;;;5107722;27;20231;-44
2021/11/22 00:02:56;;;;;;;2.13;1.77;;;;;;;;;;5102842;27;20246;-44
2021/11/22 00:05:22;;;;;;;2.42;1.95;;;;;;;;;;5111353;27;20184;-43
2021/11/22 00:07:48;;;;;;;2.38;1.80;;;;;;;;;;5112249;28;20173;-43
2021/11/22 00:10:15;;;;;;;2.45;1.73;;;;;;;;;;5120111;27;20184;-43
2021/11/22 00:12:41;;;;;;;1.98;1.60;;;;;;;;;;5100040;28;20180;-43
2021/11/22 00:15:08;;;;;;;2.03;1.83;;;;;;;;;;5105199;27;20569;-43
2021/11/22 00:17:35;;;;;;;1.92;1.73;;;;;;;;;;5111072;27;20448;-44
2021/11/22 00:20:01;;;;;;;2.20;1.95;;;;;;;;;;5121851;27;20235;-44
2021/11/22 00:22:28;;;;;;;1.73;1.50;;;;;;;;;;5112197;27;20576;-44
2021/11/22 00:24:54;;;;;;;1.75;1.65;;;;;;;;;;5108216;27;20232;-44
2021/11/22 00:27:20;;;;;;;2.13;1.90;;;;;;;;;;5106785;27;20212;-44
2021/11/22 00:29:46;;;;;;;1.70;1.60;;;;;;;;;;5118254;27;20176;-44
2021/11/22 00:32:13;;;;;;;2.25;1.80;;;;;;;;;;5103159;27;20184;-44
2021/11/22 00:34:43;;;;;;;2.72;1.90;;;;;;;;;;5095810;27;20204;-43
2021/11/22 00:37:16;;;;;;;2.22;1.80;;;;;;;;;;5093705;28;20269;-44
2021/11/22 00:39:43;;;;;;;3.33;1.90;;;;;;;;;;5093599;28;20174;-43
2021/11/22 00:42:09;;;;;;;2.03;1.73;;;;;;;;;;5097818;28;20182;-43
2021/11/22 00:44:38;;;;;;;1.75;1.65;;;;;;;;;;5096659;27;20208;-43
2021/11/22 00:47:05;;;;;;;2.15;1.83;;;;;;;;;;5115636;27;20180;-43
2021/11/22 00:49:31;;;;;;;3.03;1.90;;;;;;;;;;5120572;27;20440;-43
2021/11/22 00:51:57;;;;;;;1.88;1.77;;;;;;;;;;5114716;27;20856;-43
2021/11/22 00:54:23;;;;;;;2.03;1.80;;;;;;;;;;5116674;27;20189;-43
2021/11/22 00:56:49;;;;;;;2.05;1.70;;;;;;;;;;5129263;27;20198;-43
2021/11/22 00:59:15;;;;;;;1.90;1.70;;;;;;;;;;5109214;27;20740;-43
2021/11/22 01:01:42;;;;;;;2.15;1.90;;;;;;;;;;5112220;27;20212;-43
2021/11/22 01:04:08;;;;;;;2.22;1.67;;;;;;;;;;5099095;27;20198;-43
2021/11/22 01:06:35;;;;;;;1.70;1.60;;;;;;;;;;5106622;28;20260;-43
2021/11/22 01:09:01;;;;;;;1.67;1.58;;;;;;;;;;5113666;27;20234;-43
2021/11/22 01:11:27;;;;;;;2.17;1.63;;;;;;;;;;5114061;27;20193;-43
2021/11/22 01:13:53;;;;;;;2.60;1.95;;;;;;;;;;5112078;27;20189;-43
2021/11/22 01:16:18;;;;;;;2.67;2.00;;;;;;;;;;5114617;27;20181;-43
2021/11/22 01:18:44;;;;;;;3.17;2.08;;;;;;;;;;5124678;27;20470;-43
2021/11/22 01:21:10;;;;;;;2.30;1.73;;;;;;;;;;5123802;27;20173;-43
2021/11/22 01:23:37;;;;;;;2.90;1.80;;;;;;;;;;5123253;27;20589;-43
2021/11/22 01:26:03;;;;;;;1.95;1.77;;;;;;;;;;5121409;27;20200;-43
2021/11/22 01:28:32;;;;;;;2.10;1.90;;;;;;;;;;5108045;27;20186;-43
2021/11/22 01:30:58;;;;;;;3.60;2.38;;;;;;;;;;5120714;27;20174;-43
2021/11/22 01:33:24;;;;;;;2.40;1.90;;;;;;;;;;5125556;27;20168;-43
2021/11/22 01:35:51;;;;;;;2.65;1.80;;;;;;;;;;5116205;27;20802;-43
2021/11/22 01:38:17;;;;;;;2.28;1.65;;;;;;;;;;5106270;27;20272;-43
2021/11/22 01:40:43;;;;;;;2.60;1.80;;;;;;;;;;5114114;27;20216;-43
2021/11/22 01:43:16;;;;;;;1.70;1.60;;;;;;;;;;5120599;27;20209;-43
2021/11/22 01:45:47;;;;;;;2.55;1.88;;;;;;;;;;5113215;27;20177;-43
2021/11/22 01:48:13;;;;;;;1.95;1.80;;;;;;;;;;5107205;27;20249;-44
2021/11/22 01:50:40;;;;;;;1.73;1.63;;;;;;;;;;5116187;27;20197;-43
2021/11/22 01:53:06;;;;;;;2.80;1.70;;;;;;;;;;5120749;27;20181;-43
2021/11/22 01:55:32;;;;;;;2.05;1.80;;;;;;;;;;5114611;27;20192;-44
2021/11/22 01:57:59;;;;;;;2.30;1.58;;;;;;;;;;5127054;27;20560;-43
2021/11/22 02:00:34;;;;;;;1.95;1.83;;;;;;;;;;5116367;27;20198;-43
2021/11/22 02:03:01;;;;;;;1.80;1.70;;;;;;;;;;5116057;27;20467;-43
2021/11/22 02:05:27;;;;;;;1.88;1.70;;;;;;;;;;5103583;27;20209;-43
2021/11/22 02:07:54;;;;;;;2.47;1.60;;;;;;;;;;5110009;28;20589;-43
2021/11/22 02:10:20;;;;;;;3.15;1.80;;;;;;;;;;5116377;27;20237;-43
2021/11/22 02:12:46;;;;;;;1.90;1.80;;;;;;;;;;5126462;27;20215;-43
2021/11/22 02:15:13;;;;;;;1.80;1.58;;;;;;;;;;5106202;27;20185;-43
2021/11/22 02:17:40;;;;;;;1.52;1.42;;;;;;;;;;5123064;27;20183;-43
2021/11/22 02:20:09;;;;;;;2.28;1.50;;;;;;;;;;5108164;27;20180;-43
2021/11/22 02:22:36;;;;;;;2.05;1.88;;;;;;;;;;5109520;27;20175;-43
2021/11/22 02:25:04;;;;;;;1.70;1.60;;;;;;;;;;5110121;27;20224;-43
2021/11/22 02:27:31;;;;;;;2.08;1.63;;;;;;;;;;5123270;27;20170;-43
2021/11/22 02:29:57;;;;;;;2.08;1.48;;;;;;;;;;5105210;27;20173;-44
2021/11/22 02:32:23;;;;;;;1.90;1.65;;;;;;;;;;5103904;27;20566;-43
2021/11/22 02:34:49;;;;;;;2.50;1.60;;;;;;;;;;5103864;27;20185;-43
2021/11/22 02:37:15;;;;;;;2.00;1.63;;;;;;;;;;5111724;27;20192;-43
2021/11/22 02:39:41;;;;;;;1.75;1.40;;;;;;;;;;5113717;27;20172;-43
2021/11/22 02:42:14;;;;;;;2.00;1.42;;;;;;;;;;5119697;27;20255;-44
2021/11/22 02:44:40;;;;;;;1.90;1.23;;;;;;;;;;5112898;27;20201;-43
2021/11/22 02:47:06;;;;;;;2.53;1.60;;;;;;;;;;5121301;27;20177;-43
2021/11/22 02:49:32;;;;;;;1.70;1.60;;;;;;;;;;5108975;27;20176;-44
2021/11/22 02:51:58;;;;;;;1.60;1.50;;;;;;;;;;5116346;27;20297;-44
2021/11/22 02:54:24;;;;;;;1.70;1.60;;;;;;;;;;5105957;28;20189;-43
2021/11/22 02:56:50;;;;;;;1.77;1.67;;;;;;;;;;5121857;27;20176;-43
2021/11/22 02:59:16;;;;;;;2.22;1.40;;;;;;;;;;5112889;27;20445;-43
2021/11/22 03:01:42;;;;;;;1.52;1.42;;;;;;;;;;5108446;28;20204;-43
2021/11/22 03:04:08;;;;;;;2.22;1.40;;;;;;;;;;5110998;27;21030;-43
2021/11/22 03:06:34;;;;;;;1.92;1.40;;;;;;;;;;5111595;27;20189;-43
2021/11/22 03:09:00;;;;;;;1.60;1.50;;;;;;;;;;5099660;28;20184;-43
2021/11/22 03:11:26;;;;;;;2.55;1.77;;;;;;;;;;5132545;28;20301;-43
2021/11/22 03:13:54;;;;;;;1.50;1.40;;;;;;;;;;5122667;28;20173;-43
2021/11/22 03:16:20;;;;;;;1.38;1.27;;;;;;;;;;5113797;28;20260;-43
2021/11/22 03:18:46;;;;;;;1.40;1.30;;;;;;;;;;5104200;28;20205;-43
2021/11/22 03:21:12;;;;;;;1.48;1.38;;;;;;;;;;5135490;27;20184;-43
2021/11/22 03:23:40;;;;;;;1.60;1.35;;;;;;;;;;5130017;27;20193;-43
2021/11/22 03:26:06;;;;;;;1.55;1.45;;;;;;;;;;5110960;27;20188;-43
2021/11/22 03:28:32;;;;;;;1.63;1.33;;;;;;;;;;5124996;27;20238;-43
2021/11/22 03:30:58;;;;;;;1.70;1.45;;;;;;;;;;5131582;27;20183;-43
2021/11/22 03:33:24;;;;;;;2.55;1.52;;;;;;;;;;5133352;27;20187;-43
2021/11/22 03:35:53;;;;;;;1.50;1.20;;;;;;;;;;5114366;27;20181;-43
2021/11/22 03:38:20;;;;;;;1.65;1.50;;;;;;;;;;5134365;27;20826;-43
2021/11/22 03:40:48;;;;;;;1.92;1.63;;;;;;;;;;5125162;27;20585;-43
2021/11/22 03:43:17;;;;;;;1.63;1.52;;;;;;;;;;5126924;27;20283;-43
2021/11/22 03:45:47;;;;;;;2.47;1.55;;;;;;;;;;5121658;27;20543;-43
2021/11/22 03:48:14;;;;;;;1.85;1.58;;;;;;;;;;5124249;27;20173;-43
2021/11/22 03:50:40;;;;;;;1.80;1.40;;;;;;;;;;5119327;27;20251;-43
2021/11/22 03:53:06;;;;;;;1.40;1.30;;;;;;;;;;5136451;27;20247;-44
2021/11/22 03:55:32;;;;;;;1.63;1.38;;;;;;;;;;5108831;27;20176;-43
2021/11/22 03:57:58;;;;;;;1.50;1.40;;;;;;;;;;5128546;27;20191;-43
2021/11/22 04:00:24;;;;;;;3.53;1.33;;;;;;;;;;5099128;27;20541;-43
2021/11/22 04:02:50;;;;;;;2.58;1.70;;;;;;;;;;5103534;27;20181;-43
2021/11/22 04:05:16;;;;;;;2.13;1.35;;;;;;;;;;5110834;27;20445;-43
2021/11/22 04:07:43;;;;;;;2.78;1.60;;;;;;;;;;5105501;28;20724;-43
2021/11/22 04:10:09;;;;;;;1.52;1.40;;;;;;;;;;5118722;27;20187;-43
2021/11/22 04:12:35;;;;;;;1.55;1.23;;;;;;;;;;5136453;27;20180;-43
2021/11/22 04:15:01;;;;;;;1.48;1.38;;;;;;;;;;5117233;27;20189;-43
2021/11/22 04:17:27;;;;;;;1.55;1.45;;;;;;;;;;5134416;27;20219;-43
2021/11/22 04:19:53;;;;;;;2.67;1.80;;;;;;;;;;5109447;27;20184;-43
2021/11/22 04:22:19;;;;;;;2.08;1.60;;;;;;;;;;5133811;27;20177;-43
2021/11/22 04:24:45;;;;;;;2.00;1.40;;;;;;;;;;5114760;27;20632;-43
2021/11/22 04:27:12;;;;;;;1.73;1.63;;;;;;;;;;5122799;27;20237;-43
2021/11/22 04:29:40;;;;;;;1.98;1.50;;;;;;;;;;5114367;27;20183;-43
2021/11/22 04:32:07;;;;;;;1.55;1.40;;;;;;;;;;5107514;27;20178;-43
2021/11/22 04:34:34;;;;;;;1.70;1.60;;;;;;;;;;5106507;27;20240;-43
2021/11/22 04:37:00;;;;;;;1.75;1.38;;;;;;;;;;5129156;27;20276;-44
2021/11/22 04:39:26;;;;;;;1.50;1.40;;;;;;;;;;5101646;28;20449;-44
2021/11/22 04:41:52;;;;;;;2.67;1.70;;;;;;;;;;5109192;27;20465;-43
2021/11/22 04:44:18;;;;;;;2.13;1.40;;;;;;;;;;5100152;27;20205;-43
2021/11/22 04:46:44;;;;;;;2.20;1.70;;;;;;;;;;5123717;27;20228;-43
2021/11/22 04:49:11;;;;;;;2.65;1.88;;;;;;;;;;5117819;27;20185;-43
2021/11/22 04:51:37;;;;;;;1.70;1.60;;;;;;;;;;5126860;27;20180;-43
2021/11/22 04:54:03;;;;;;;2.13;1.50;;;;;;;;;;5108616;27;20222;-43
2021/11/22 04:56:29;;;;;;;1.75;1.30;;;;;;;;;;5123519;27;20191;-43
2021/11/22 04:58:55;;;;;;;1.98;1.52;;;;;;;;;;5112658;27;20177;-43
2021/11/22 05:01:21;;;;;;;1.45;1.35;;;;;;;;;;5129229;27;20258;-43
2021/11/22 05:03:49;;;;;;;2.67;1.60;;;;;;;;;;5119076;27;20652;-43
2021/11/22 05:06:15;;;;;;;1.52;1.42;;;;;;;;;;5105973;27;20254;-44
2021/11/22 05:08:41;;;;;;;4.78;2.03;;;;;;;;;;5100539;27;20174;-44
2021/11/22 05:11:07;;;;;;;3.38;1.95;;;;;;;;;;5115785;27;20205;-43
2021/11/22 05:13:33;;;;;;;5.20;2.15;;;;;;;;;;5102086;28;20216;-43
2021/11/22 05:15:59;;;;;;;3.22;2.40;;;;;;;;;;5125528;27;20275;-43
2021/11/22 05:18:25;;;;;;;3.90;1.98;;;;;;;;;;5122799;27;20503;-43
2021/11/22 05:20:51;;;;;;;6.68;2.10;;;;;;;;;;5118747;27;20456;-43
2021/11/22 05:23:17;;;;;;;4.22;1.90;;;;;;;;;;5123149;27;20254;-43
2021/11/22 05:25:43;;;;;;;11.13;2.60;;;;;;;;;;5104077;27;20181;-43
2021/11/22 05:28:10;;;;;;;20.50;5.32;;;;;;;;;;5103594;27;20334;-43
2021/11/22 05:30:36;;;;;;;33.33;8.18;;;;;;;;;;5098156;28;20162;-43
2021/11/22 05:33:04;;;;;;;38.13;10.38;;;;;;;;;;5098280;28;20193;-43
2021/11/22 05:35:30;;;;;;;50.72;12.45;;;;;;;;;;5097789;28;20239;-43
2021/11/22 05:37:57;;;;;;;56.30;14.70;;;;;;;;;;5098345;28;20165;-43
2021/11/22 05:43:27;;;;;;;65.32;16.52;;;;;;;;;;5096655;28;20212;-44
2021/11/22 05:45:53;;;;;;;66.70;17.65;;;;;;;;;;5097732;28;20170;-44
2021/11/22 05:48:19;;;;;;;62.85;17.05;;;;;;;;;;5098019;28;20166;-44
2021/11/22 05:50:53;;;;;;;61.30;17.40;;;;;;;;;;5098030;28;20162;-44
2021/11/22 05:53:20;;;;;;;60.25;17.08;;;;;;;;;;5097877;28;20552;-43
2021/11/22 05:55:50;;;;;;;59.22;16.00;;;;;;;;;;5097251;28;20545;-43
2021/11/22 05:58:16;;;;;;;66.05;17.05;;;;;;;;;;5098092;27;20197;-43
2021/11/22 06:00:42;;;;;;;53.15;15.25;;;;;;;;;;5108065;27;20189;-43
2021/11/22 06:03:08;;;;;;;52.20;16.00;;;;;;;;;;5126872;27;20203;-43
2021/11/22 06:05:34;;;;;;;46.20;15.00;;;;;;;;;;5112873;27;20189;-43
2021/11/22 06:08:00;;;;;;;48.10;14.35;;;;;;;;;;5112360;28;20181;-43
2021/11/22 06:10:27;;;;;;;49.65;14.02;;;;;;;;;;5112132;27;20223;-43
2021/11/22 06:12:53;;;;;;;55.97;14.82;;;;;;;;;;5117155;27;20173;-43
2021/11/22 06:15:19;;;;;;;46.22;14.50;;;;;;;;;;5116229;27;20210;-43
2021/11/22 06:17:45;;;;;;;48.60;13.45;;;;;;;;;;5115750;27;20221;-43
2021/11/22 06:20:11;;;;;;;43.33;13.13;;;;;;;;;;5108715;27;20553;-43
2021/11/22 06:22:38;;;;;;;43.47;13.15;;;;;;;;;;5122045;27;20287;-43
2021/11/22 06:25:04;;;;;;;38.90;12.63;;;;;;;;;;5080405;28;20448;-43
2021/11/22 06:27:30;;;;;;;32.20;11.70;;;;;;;;;;5106657;28;20684;-43
2021/11/22 06:29:56;;;;;;;36.25;11.25;;;;;;;;;;5108668;27;20204;-43
2021/11/22 06:32:27;;;;;;;36.67;12.30;;;;;;;;;;5116578;27;20205;-43
2021/11/22 06:34:54;;;;;;;35.42;12.80;;;;;;;;;;5118050;27;20176;-44
2021/11/22 06:37:20;;;;;;;33.15;11.30;;;;;;;;;;5117855;27;20624;-43
2021/11/22 06:39:46;;;;;;;32.20;11.23;;;;;;;;;;5110246;27;20202;-42
2021/11/22 06:42:12;;;;;;;33.85;11.25;;;;;;;;;;5120686;27;20470;-43
2021/11/22 06:44:38;;;;;;;31.23;11.20;;;;;;;;;;5123063;27;20208;-43
2021/11/22 06:47:05;;;;;;;31.17;10.85;;;;;;;;;;5135231;27;20168;-43
2021/11/22 06:49:31;;;;;;;28.65;10.30;;;;;;;;;;5118499;27;20200;-43
2021/11/22 06:51:57;;;;;;;33.78;10.07;;;;;;;;;;5130053;27;20204;-43
2021/11/22 06:54:23;;;;;;;28.77;9.00;;;;;;;;;;5117353;27;20226;-44
2021/11/22 06:56:50;;;;;;;27.45;9.48;;;;;;;;;;5107974;27;20207;-44
2021/11/22 06:59:16;;;;;;;28.50;9.50;;;;;;;;;;5103100;28;20312;-43
2021/11/22 07:01:42;;;;;;;27.40;9.75;;;;;;;;;;5100400;28;20556;-43
2021/11/22 07:04:09;;;;;;;30.88;9.32;;;;;;;;;;5118705;28;20209;-43
2021/11/22 07:06:36;;;;;;;23.02;9.00;;;;;;;;;;5116859;27;20234;-43
2021/11/22 07:09:03;;;;;;;23.60;8.90;;;;;;;;;;5099504;28;20311;-43
2021/11/22 07:11:29;;;;;;;23.77;8.90;;;;;;;;;;5130989;28;20168;-43
2021/11/22 07:13:56;;;;;;;19.75;8.07;;;;;;;;;;5100623;28;20246;-43
2021/11/22 07:16:22;;;;;;;21.60;8.23;;;;;;;;;;5131423;28;20618;-43
2021/11/22 07:18:48;;;;;;;20.13;8.65;;;;;;;;;;5098638;28;20605;-44
2021/11/22 07:21:14;;;;;;;19.98;8.10;;;;;;;;;;5110543;28;20181;-43
2021/11/22 07:23:40;;;;;;;15.38;7.15;;;;;;;;;;5126171;28;20217;-43
2021/11/22 07:26:06;;;;;;;22.23;7.35;;;;;;;;;;5086478;28;20195;-43
2021/11/22 07:28:32;;;;;;;18.63;8.07;;;;;;;;;;5101742;28;20234;-43
2021/11/22 07:30:58;;;;;;;17.50;6.93;;;;;;;;;;5096486;28;20204;-43
2021/11/22 07:33:24;;;;;;;15.93;6.65;;;;;;;;;;5124046;28;20585;-42
2021/11/22 07:35:50;;;;;;;16.02;7.05;;;;;;;;;;5124252;28;20184;-43
2021/11/22 07:38:18;;;;;;;16.00;6.70;;;;;;;;;;5131726;28;20177;-43
2021/11/22 07:40:44;;;;;;;19.52;6.97;;;;;;;;;;5112824;28;20227;-43
2021/11/22 07:43:10;;;;;;;18.63;6.78;;;;;;;;;;5125747;28;20267;-43
2021/11/22 07:45:36;;;;;;;17.15;7.32;;;;;;;;;;5100465;28;20424;-43
2021/11/22 07:48:02;;;;;;;18.60;7.05;;;;;;;;;;5120084;28;20260;-43
2021/11/22 07:50:29;;;;;;;16.98;6.13;;;;;;;;;;5115743;28;20245;-45
2021/11/22 07:52:55;;;;;;;15.52;6.43;;;;;;;;;;5114274;28;20510;-45
2021/11/22 07:55:22;;;;;;;15.82;6.80;;;;;;;;;;5100268;28;20303;-45
2021/11/22 07:57:49;;;;;;;14.57;5.88;;;;;;;;;;5117309;28;20563;-46
2021/11/22 08:00:16;;;;;;;14.38;6.10;;;;;;;;;;5110667;28;20181;-45
2021/11/22 08:02:42;;;;;;;15.65;6.40;;;;;;;;;;5102393;28;20235;-45
2021/11/22 08:05:09;;;;;;;13.68;5.70;;;;;;;;;;5109775;28;20237;-45
2021/11/22 08:07:37;;;;;;;13.80;5.68;;;;;;;;;;5103611;28;20260;-46
2021/11/22 08:10:05;;;;;;;15.32;5.45;;;;;;;;;;5117651;27;20515;-45
2021/11/22 08:12:33;;;;;;;13.30;5.63;;;;;;;;;;5126489;27;20176;-45
2021/11/22 08:14:59;;;;;;;12.93;4.70;;;;;;;;;;5126501;27;20176;-45
2021/11/22 08:17:25;;;;;;;11.48;5.65;;;;;;;;;;5131595;27;20219;-45
2021/11/22 08:19:52;;;;;;;14.00;5.35;;;;;;;;;;5116602;27;20341;-45
2021/11/22 08:22:20;;;;;;;9.88;4.82;;;;;;;;;;5133122;27;20195;-45
2021/11/22 08:24:51;;;;;;;11.48;4.90;;;;;;;;;;5111798;27;20197;-45
2021/11/22 08:27:17;;;;;;;9.25;4.40;;;;;;;;;;5131473;27;20177;-45
2021/11/22 08:29:43;;;;;;;9.82;4.72;;;;;;;;;;5100681;27;20205;-45
2021/11/22 08:32:09;;;;;;;11.70;4.95;;;;;;;;;;5108777;28;20192;-45
2021/11/22 08:34:35;;;;;;;9.85;5.07;;;;;;;;;;5104654;27;20838;-45
2021/11/22 08:37:02;;;;;;;9.38;4.40;;;;;;;;;;5100019;28;20193;-45
2021/11/22 08:39:28;;;;;;;11.13;4.65;;;;;;;;;;5106551;27;20193;-45
2021/11/22 08:41:54;;;;;;;11.35;4.10;;;;;;;;;;5104511;27;20181;-45
2021/11/22 08:44:21;;;;;;;10.55;4.20;;;;;;;;;;5121187;27;20593;-45
2021/11/22 08:46:47;;;;;;;11.13;4.10;;;;;;;;;;5113547;27;20628;-46
2021/11/22 08:49:14;;;;;;;8.57;4.32;;;;;;;;;;5111224;27;20193;-46
2021/11/22 08:51:40;;;;;;;7.72;4.28;;;;;;;;;;5111579;27;20188;-46
2021/11/22 08:54:07;;;;;;;6.80;3.75;;;;;;;;;;5116971;27;20652;-46
2021/11/22 08:56:33;;;;;;;8.55;4.50;;;;;;;;;;5122665;27;20193;-45
2021/11/22 08:58:59;;;;;;;8.48;4.07;;;;;;;;;;5113578;27;20182;-46
2021/11/22 09:01:26;;;;;;;6.72;3.67;;;;;;;;;;5110612;27;20557;-46
2021/11/22 09:03:52;;;;;;;7.88;3.58;;;;;;;;;;5121259;27;20479;-45
2021/11/22 09:06:19;;;;;;;7.63;3.88;;;;;;;;;;5109777;27;20634;-45
2021/11/22 09:08:45;;;;;;;7.13;3.60;;;;;;;;;;5104908;28;20196;-45
2021/11/22 09:11:11;;;;;;;7.57;3.65;;;;;;;;;;5105205;27;20181;-45
2021/11/22 09:13:39;;;;;;;7.30;3.35;;;;;;;;;;5111049;27;20200;-45
2021/11/22 09:16:05;;;;;;;9.38;3.70;;;;;;;;;;5113766;27;20219;-46
2021/11/22 09:18:31;;;;;;;6.05;3.58;;;;;;;;;;5126914;27;20180;-46
2021/11/22 09:20:57;;;;;;;8.77;3.92;;;;;;;;;;5120196;27;20226;-46
2021/11/22 09:23:23;;;;;;;6.20;3.40;;;;;;;;;;5117654;27;20208;-45
2021/11/22 09:25:51;;;;;;;8.88;4.22;;;;;;;;;;5106384;27;20170;-46
2021/11/22 09:28:17;;;;;;;6.20;2.95;;;;;;;;;;5111210;27;20224;-46
2021/11/22 09:30:43;;;;;;;6.88;3.38;;;;;;;;;;5105681;27;20260;-45
2021/11/22 09:33:11;;;;;;;5.38;3.13;;;;;;;;;;5118839;27;20741;-45
2021/11/22 09:35:37;;;;;;;8.13;3.35;;;;;;;;;;5118589;27;20606;-45
2021/11/22 09:38:03;;;;;;;5.68;3.15;;;;;;;;;;5125017;27;20196;-46
2021/11/22 09:40:30;;;;;;;7.65;2.97;;;;;;;;;;5109994;27;20180;-43
2021/11/22 09:42:56;;;;;;;6.40;2.85;;;;;;;;;;5120276;27;20173;-43
2021/11/22 09:45:26;;;;;;;4.75;2.92;;;;;;;;;;5099745;27;20224;-44
2021/11/22 09:47:53;;;;;;;7.22;2.88;;;;;;;;;;5104608;27;20174;-44
2021/11/22 09:50:19;;;;;;;5.85;2.92;;;;;;;;;;5113583;27;20193;-44
2021/11/22 09:52:45;;;;;;;6.05;2.88;;;;;;;;;;5110407;27;20173;-44
2021/11/22 09:55:11;;;;;;;4.43;2.70;;;;;;;;;;5111909;27;20182;-45
2021/11/22 09:57:38;;;;;;;5.18;2.35;;;;;;;;;;5125909;27;20221;-44
2021/11/22 10:00:06;;;;;;;5.63;2.85;;;;;;;;;;5105676;27;20205;-45
2021/11/22 10:02:47;;;;;;;4.70;2.78;;;;;;;;;;5118932;27;20267;-44
2021/11/22 10:05:35;;;;;;;5.10;2.70;;;;;;;;;;5100123;27;20213;-44
2021/11/22 10:08:06;;;;;;;3.88;2.38;;;;;;;;;;5104840;28;20222;-44
2021/11/22 10:10:33;;;;;;;4.28;2.25;;;;;;;;;;5111212;27;20171;-44
2021/11/22 10:13:00;;;;;;;5.50;2.55;;;;;;;;;;5110520;27;20173;-44
2021/11/22 10:15:26;;;;;;;4.38;2.50;;;;;;;;;;5083237;28;20186;-44
2021/11/22 10:17:52;;;;;;;4.47;2.35;;;;;;;;;;5128697;27;20196;-44
2021/11/22 10:20:19;;;;;;;3.50;2.08;;;;;;;;;;5112246;27;20557;-44
2021/11/22 10:23:01;;;;;;;4.65;2.70;;;;;;;;;;5107236;27;20252;-44
2021/11/22 10:25:30;;;;;;;5.75;2.65;;;;;;;;;;5109420;27;20477;-44
2021/11/22 10:27:59;;;;;;;5.07;2.25;;;;;;;;;;5116161;27;20232;-44
2021/11/22 10:30:27;;;;;;;4.18;2.20;;;;;;;;;;5108567;27;20193;-44
2021/11/22 10:32:54;;;;;;;4.45;2.17;;;;;;;;;;5128308;27;20226;-44
2021/11/22 10:35:20;;;;;;;2.13;1.80;;;;;;;;;;5107130;27;20182;-44
2021/11/22 10:38:14;;;;;;;3.80;2.00;;;;;;;;;;5117358;27;20703;-44
2021/11/22 10:40:41;;;;;;;3.58;2.03;;;;;;;;;;5074734;27;20615;-44
2021/11/22 10:43:08;;;;;;;3.65;2.00;;;;;;;;;;5126063;27;20234;-44
2021/11/22 10:45:42;;;;;;;3.78;2.05;;;;;;;;;;5120910;27;20185;-44
2021/11/22 10:48:16;;;;;;;2.83;1.95;;;;;;;;;;5112202;27;20571;-44
2021/11/22 10:50:55;;;;;;;4.05;2.10;;;;;;;;;;5110843;27;20514;-44
2021/11/22 10:53:42;;;;;;;3.17;1.92;;;;;;;;;;5119596;27;20203;-45
2021/11/22 10:56:10;;;;;;;2.75;1.70;;;;;;;;;;5103719;27;20181;-44
2021/11/22 10:58:38;;;;;;;3.90;1.67;;;;;;;;;;5099365;28;20186;-44
2021/11/22 11:01:19;;;;;;;3.10;1.70;;;;;;;;;;5122587;27;20446;-44
2021/11/22 11:03:52;;;;;;;3.17;1.98;;;;;;;;;;5111974;27;20213;-46
2021/11/22 11:06:18;;;;;;;3.00;1.75;;;;;;;;;;5109656;27;20200;-44
2021/11/22 11:08:45;;;;;;;4.20;2.10;;;;;;;;;;5104393;28;20178;-44
2021/11/22 11:11:16;;;;;;;3.00;1.60;;;;;;;;;;5082892;28;20174;-46
2021/11/22 11:13:50;;;;;;;3.22;1.83;;;;;;;;;;5124957;28;20259;-44
2021/11/22 11:16:16;;;;;;;2.20;1.48;;;;;;;;;;5117170;28;20196;-44
2021/11/22 11:18:55;;;;;;;3.22;1.83;;;;;;;;;;5125138;28;20376;-44
2021/11/22 11:21:25;;;;;;;2.85;1.73;;;;;;;;;;5112024;28;20177;-43
2021/11/22 11:23:51;;;;;;;1.92;1.45;;;;;;;;;;5118651;28;20208;-44
2021/11/22 11:26:17;;;;;;;1.77;1.50;;;;;;;;;;5107258;28;20193;-44
2021/11/22 11:28:43;;;;;;;2.47;1.50;;;;;;;;;;5118494;28;20210;-44
2021/11/22 11:31:09;;;;;;;1.95;1.33;;;;;;;;;;5116527;28;20255;-44
2021/11/22 11:33:35;;;;;;;3.30;1.83;;;;;;;;;;5115169;28;20275;-44
2021/11/22 11:36:09;;;;;;;4.90;1.67;;;;;;;;;;5111701;28;20208;-44
2021/11/22 11:38:51;;;;;;;1.58;1.48;;;;;;;;;;5101742;28;20268;-44
2021/11/22 11:41:32;;;;;;;3.25;1.80;;;;;;;;;;5122964;27;20432;-45
2021/11/22 11:44:07;;;;;;;2.22;1.42;;;;;;;;;;5124654;27;20201;-44
2021/11/22 11:46:52;;;;;;;1.75;1.50;;;;;;;;;;5128638;27;20192;-44
2021/11/22 11:49:18;;;;;;;3.10;1.50;;;;;;;;;;5118331;27;20204;-44
2021/11/22 11:51:46;;;;;;;2.40;1.65;;;;;;;;;;5117982;27;20176;-44
2021/11/22 11:54:15;;;;;;;1.92;1.45;;;;;;;;;;5125677;27;20276;-44
2021/11/22 11:56:44;;;;;;;2.00;1.40;;;;;;;;;;5102547;27;20181;-44
2021/11/22 11:59:13;;;;;;;1.70;1.30;;;;;;;;;;5120680;27;20199;-44
2021/11/22 12:01:55;;;;;;;2.50;1.30;;;;;;;;;;5111088;27;20227;-44
2021/11/22 12:04:21;;;;;;;1.60;1.27;;;;;;;;;;5116129;27;20223;-45
2021/11/22 12:06:50;;;;;;;2.03;1.27;;;;;;;;;;5104881;28;20199;-45
2021/11/22 12:09:29;;;;;;;2.90;1.30;;;;;;;;;;5108479;27;20209;-44
2021/11/22 12:11:58;;;;;;;1.95;1.73;;;;;;;;;;5115130;27;20184;-44
2021/11/22 12:14:43;;;;;;;1.13;1.00;;;;;;;;;;5124816;27;20222;-44
2021/11/22 12:17:09;;;;;;;3.78;1.60;;;;;;;;;;5108123;27;20209;-44
2021/11/22 12:19:36;;;;;;;3.08;1.35;;;;;;;;;;5113909;27;20585;-44
2021/11/22 12:22:09;;;;;;;1.92;1.05;;;;;;;;;;5122612;27;20210;-44
2021/11/22 12:24:39;;;;;;;4.45;1.50;;;;;;;;;;5106620;27;20319;-44
2021/11/22 12:27:24;;;;;;;1.95;1.23;;;;;;;;;;5109664;27;20173;-44
2021/11/22 12:29:50;;;;;;;3.60;1.35;;;;;;;;;;5112497;27;20208;-43
2021/11/22 12:32:26;;;;;;;1.95;1.40;;;;;;;;;;5118394;27;20184;-44
2021/11/22 12:34:56;;;;;;;2.25;1.63;;;;;;;;;;5104953;27;20488;-44
2021/11/22 12:37:26;;;;;;;10.25;3.63;;;;;;;;;;5125765;27;20176;-44
2021/11/22 12:39:53;;;;;;;6.28;1.75;;;;;;;;;;5108964;27;20184;-44
2021/11/22 12:42:21;;;;;;;3.42;1.80;;;;;;;;;;5117514;27;20204;-44
2021/11/22 12:45:06;;;;;;;7.30;1.80;;;;;;;;;;5121918;27;20204;-44
2021/11/22 12:47:32;;;;;;;4.97;1.77;;;;;;;;;;5113914;27;20172;-44
2021/11/22 12:50:11;;;;;;;7.10;2.10;;;;;;;;;;5114047;27;20231;-44
2021/11/22 12:52:37;;;;;;;7.47;2.20;;;;;;;;;;5108418;27;20225;-43
2021/11/22 12:55:12;;;;;;;7.68;2.03;;;;;;;;;;5119490;27;20231;-44
2021/11/22 12:57:40;;;;;;;3.55;2.10;;;;;;;;;;5113318;27;20268;-45
2021/11/22 13:00:08;;;;;;;4.95;2.17;;;;;;;;;;5114684;27;20191;-44
2021/11/22 13:02:46;;;;;;;7.60;2.58;;;;;;;;;;5103639;27;20558;-44
2021/11/22 13:05:32;;;;;;;7.50;2.00;;;;;;;;;;5106916;27;20212;-44
2021/11/22 13:07:58;;;;;;;5.85;2.45;;;;;;;;;;5103637;28;20181;-44
2021/11/22 13:10:35;;;;;;;7.72;2.05;;;;;;;;;;5117048;27;20297;-44
2021/11/22 13:13:10;;;;;;;5.22;2.42;;;;;;;;;;5121129;27;20225;-44
2021/11/22 13:15:53;;;;;;;6.00;2.65;;;;;;;;;;5114861;27;20176;-44
2021/11/22 13:18:20;;;;;;;7.70;2.22;;;;;;;;;;5121525;27;20189;-44
2021/11/22 13:20:45;;;;;;;10.35;3.47;;;;;;;;;;5115340;27;20208;-44
2021/11/22 13:23:23;;;;;;;7.68;3.33;;;;;;;;;;5118882;27;20547;-44
2021/11/22 13:25:49;;;;;;;7.00;2.90;;;;;;;;;;5110389;27;20260;-44
2021/11/22 13:28:17;;;;;;;6.78;2.95;;;;;;;;;;5105258;27;20186;-44
2021/11/22 13:30:44;;;;;;;6.88;2.90;;;;;;;;;;5124365;27;20263;-44
2021/11/22 13:33:10;;;;;;;4.80;2.67;;;;;;;;;;5123502;27;20427;-44
2021/11/22 13:35:37;;;;;;;4.03;2.35;;;;;;;;;;5122375;27;20289;-44
2021/11/22 13:38:11;;;;;;;4.75;2.53;;;;;;;;;;5126713;27;20184;-44
2021/11/22 13:40:37;;;;;;;6.57;2.20;;;;;;;;;;5115071;27;20180;-45
2021/11/22 13:43:06;;;;;;;4.13;2.20;;;;;;;;;;5113489;27;20196;-44
2021/11/22 13:45:32;;;;;;;4.65;2.28;;;;;;;;;;5113441;27;20680;-44
2021/11/22 13:47:58;;;;;;;3.17;2.08;;;;;;;;;;5084110;28;20539;-44
2021/11/22 13:50:27;;;;;;;3.80;2.20;;;;;;;;;;5107863;27;20634;-44
2021/11/22 13:52:52;;;;;;;3.85;2.13;;;;;;;;;;5130384;27;20169;-44
2021/11/22 13:55:19;;;;;;;7.65;2.22;;;;;;;;;;5120630;27;20451;-44
2021/11/22 13:57:45;;;;;;;5.05;2.08;;;;;;;;;;5103292;27;20487;-44
2021/11/22 14:00:11;;;;;;;3.42;1.98;;;;;;;;;;5113144;27;20185;-44
2021/11/22 14:02:37;;;;;;;6.90;1.80;;;;;;;;;;5124651;27;20579;-44
2021/11/22 14:05:04;;;;;;;4.50;1.90;;;;;;;;;;5098652;27;20448;-45
2021/11/22 14:07:50;;;;;;;2.90;1.90;;;;;;;;;;5104086;28;20268;-44
2021/11/22 14:10:16;;;;;;;5.50;1.90;;;;;;;;;;5119367;27;20169;-45
2021/11/22 14:12:42;;;;;;;3.00;1.90;;;;;;;;;;5121124;27;20279;-44
2021/11/22 14:15:20;;;;;;;8.88;3.25;;;;;;;;;;5118573;27;20231;-44
2021/11/22 14:17:50;;;;;;;18.48;6.57;;;;;;;;;;5106115;27;20192;-44
2021/11/22 14:20:17;;;;;;;47.35;20.85;;;;;;;;;;5109596;27;20192;-44
2021/11/22 14:22:44;;;;;;;41.33;19.30;;;;;;;;;;5117611;27;20177;-44
2021/11/22 14:25:21;;;;;;;29.08;14.40;;;;;;;;;;5117670;27;20579;-44
2021/11/22 14:27:47;;;;;;;22.85;11.25;;;;;;;;;;5104401;27;20180;-44
2021/11/22 14:30:15;;;;;;;22.98;10.43;;;;;;;;;;5101362;27;20173;-44
2021/11/22 14:32:42;;;;;;;22.00;9.38;;;;;;;;;;5105284;28;20169;-44
2021/11/22 14:35:13;;;;;;;26.27;10.05;;;;;;;;;;5106957;27;20177;-44
2021/11/22 14:37:39;;;;;;;22.35;9.70;;;;;;;;;;5118387;27;20259;-44
2021/11/22 14:40:06;;;;;;;21.80;8.48;;;;;;;;;;5107633;27;20445;-44
2021/11/22 14:42:32;;;;;;;23.48;8.82;;;;;;;;;;5118040;27;20213;-44
2021/11/22 14:44:58;;;;;;;19.15;8.18;;;;;;;;;;5104315;27;20204;-45